sensor_id;sensor_type;location;lat;lon;timestamp;temperature;humidity
3562;DHT22;1795;52.074;4.754;2022-09-04T00:01:54;20.20;99.90
3562;DHT22;1795;52.074;4.754;2022-09-04T00:04:31;20.20;99.90
3562;DHT22;1795;52.074;4.754;2022-09-04T00:07:07;20.20;99.90
3562;DHT22;1795;52.074;4.754;2022-09-04T00:09:47;20.20;99.90
3562;DHT22;1795;52.074;4.754;2022-09-04T00:12:24;20.10;99.90
3562;DHT22;1795;52.074;4.754;2022-09-04T00:15:00;20.10;99.90
3562;DHT22;1795;52.074;4.754;2022-09-04T00:17:36;20.00;99.90
3562;DHT22;1795;52.074;4.754;2022-09-04T00:20:08;20.00;99.90
3562;DHT22;1795;52.074;4.754;2022-09-04T00:22:44;20.00;99.90
3562;DHT22;1795;52.074;4.754;2022-09-04T00:25:22;19.90;99.90
3562;DHT22;1795;52.074;4.754;2022-09-04T00:27:57;19.90;99.90
3562;DHT22;1795;52.074;4.754;2022-09-04T00:30:27;19.90;99.90
3562;DHT22;1795;52.074;4.754;2022-09-04T00:33:00;19.90;99.90
3562;DHT22;1795;52.074;4.754;2022-09-04T00:35:31;19.90;99.90
3562;DHT22;1795;52.074;4.754;2022-09-04T00:38:02;19.80;99.90
3562;DHT22;1795;52.074;4.754;2022-09-04T00:40:32;19.80;99.90
3562;DHT22;1795;52.074;4.754;2022-09-04T00:46:03;19.80;99.90
3562;DHT22;1795;52.074;4.754;2022-09-04T00:49:23;19.70;99.90
3562;DHT22;1795;52.074;4.754;2022-09-04T00:52:05;19.70;99.90
3562;DHT22;1795;52.074;4.754;2022-09-04T00:54:46;19.70;99.90
3562;DHT22;1795;52.074;4.754;2022-09-04T00:57:49;19.60;99.90
3562;DHT22;1795;52.074;4.754;2022-09-04T01:00:24;19.60;99.90
3562;DHT22;1795;52.074;4.754;2022-09-04T01:03:13;19.60;99.90
3562;DHT22;1795;52.074;4.754;2022-09-04T01:06:02;19.60;99.90
3562;DHT22;1795;52.074;4.754;2022-09-04T01:08:46;19.50;99.90
3562;DHT22;1795;52.074;4.754;2022-09-04T01:11:31;19.50;99.90
3562;DHT22;1795;52.074;4.754;2022-09-04T01:14:10;19.50;99.90
3562;DHT22;1795;52.074;4.754;2022-09-04T01:16:45;19.50;99.90
3562;DHT22;1795;52.074;4.754;2022-09-04T01:19:29;19.40;99.90
3562;DHT22;1795;52.074;4.754;2022-09-04T01:22:18;19.40;99.90
3562;DHT22;1795;52.074;4.754;2022-09-04T01:25:00;19.40;99.90
3562;DHT22;1795;52.074;4.754;2022-09-04T01:27:40;19.40;99.90
3562;DHT22;1795;52.074;4.754;2022-09-04T01:30:13;19.40;99.90
3562;DHT22;1795;52.074;4.754;2022-09-04T01:32:49;19.30;99.90
3562;DHT22;1795;52.074;4.754;2022-09-04T01:35:26;19.30;99.90
3562;DHT22;1795;52.074;4.754;2022-09-04T01:38:02;19.30;99.90
3562;DHT22;1795;52.074;4.754;2022-09-04T01:40:37;19.30;99.90
3562;DHT22;1795;52.074;4.754;2022-09-04T01:43:10;19.30;99.90
3562;DHT22;1795;52.074;4.754;2022-09-04T01:46:25;19.30;99.90
3562;DHT22;1795;52.074;4.754;2022-09-04T01:49:01;19.20;99.90
3562;DHT22;1795;52.074;4.754;2022-09-04T01:51:36;19.20;99.90
3562;DHT22;1795;52.074;4.754;2022-09-04T01:54:26;19.20;99.90
3562;DHT22;1795;52.074;4.754;2022-09-04T01:57:15;19.20;99.90
3562;DHT22;1795;52.074;4.754;2022-09-04T01:59:56;19.20;99.90
3562;DHT22;1795;52.074;4.754;2022-09-04T02:02:32;19.10;99.90
3562;DHT22;1795;52.074;4.754;2022-09-04T02:05:07;19.10;99.90
3562;DHT22;1795;52.074;4.754;2022-09-04T02:07:44;19.10;99.90
3562;DHT22;1795;52.074;4.754;2022-09-04T02:10:22;19.20;99.90
3562;DHT22;1795;52.074;4.754;2022-09-04T02:13:03;19.10;99.90
3562;DHT22;1795;52.074;4.754;2022-09-04T02:15:42;19.00;99.90
3562;DHT22;1795;52.074;4.754;2022-09-04T02:18:18;19.00;99.90
3562;DHT22;1795;52.074;4.754;2022-09-04T02:20:55;19.00;99.90
3562;DHT22;1795;52.074;4.754;2022-09-04T02:23:33;19.00;99.90
3562;DHT22;1795;52.074;4.754;2022-09-04T02:26:10;19.00;99.90
3562;DHT22;1795;52.074;4.754;2022-09-04T02:28:46;19.00;99.90
3562;DHT22;1795;52.074;4.754;2022-09-04T02:31:25;18.90;99.90
3562;DHT22;1795;52.074;4.754;2022-09-04T02:34:02;19.00;99.90
3562;DHT22;1795;52.074;4.754;2022-09-04T02:36:38;18.90;99.90
3562;DHT22;1795;52.074;4.754;2022-09-04T02:39:16;18.90;99.90
3562;DHT22;1795;52.074;4.754;2022-09-04T02:41:53;18.90;99.90
3562;DHT22;1795;52.074;4.754;2022-09-04T02:44:33;18.80;99.90
3562;DHT22;1795;52.074;4.754;2022-09-04T02:47:12;18.90;99.90
3562;DHT22;1795;52.074;4.754;2022-09-04T02:49:53;18.80;99.90
3562;DHT22;1795;52.074;4.754;2022-09-04T02:52:45;18.80;99.90
3562;DHT22;1795;52.074;4.754;2022-09-04T02:55:26;18.70;99.90
3562;DHT22;1795;52.074;4.754;2022-09-04T02:58:09;18.70;99.90
3562;DHT22;1795;52.074;4.754;2022-09-04T03:00:45;18.80;99.90
3562;DHT22;1795;52.074;4.754;2022-09-04T03:03:25;18.70;99.90
3562;DHT22;1795;52.074;4.754;2022-09-04T03:05:58;18.70;99.90
3562;DHT22;1795;52.074;4.754;2022-09-04T03:08:32;18.70;99.90
3562;DHT22;1795;52.074;4.754;2022-09-04T03:11:07;18.70;99.90
3562;DHT22;1795;52.074;4.754;2022-09-04T03:13:41;18.70;99.90
3562;DHT22;1795;52.074;4.754;2022-09-04T03:16:16;18.70;99.90
3562;DHT22;1795;52.074;4.754;2022-09-04T03:19:03;18.60;99.90
3562;DHT22;1795;52.074;4.754;2022-09-04T03:21:38;18.60;99.90
3562;DHT22;1795;52.074;4.754;2022-09-04T03:24:12;18.60;99.90
3562;DHT22;1795;52.074;4.754;2022-09-04T03:26:45;18.60;99.90
3562;DHT22;1795;52.074;4.754;2022-09-04T03:29:24;18.60;99.90
3562;DHT22;1795;52.074;4.754;2022-09-04T03:32:06;18.60;99.90
3562;DHT22;1795;52.074;4.754;2022-09-04T03:34:49;18.50;99.90
3562;DHT22;1795;52.074;4.754;2022-09-04T03:37:43;18.50;99.90
3562;DHT22;1795;52.074;4.754;2022-09-04T03:40:28;18.50;99.90
3562;DHT22;1795;52.074;4.754;2022-09-04T03:45:59;18.50;99.90
3562;DHT22;1795;52.074;4.754;2022-09-04T03:48:42;18.50;99.90
3562;DHT22;1795;52.074;4.754;2022-09-04T03:51:18;18.50;99.90
3562;DHT22;1795;52.074;4.754;2022-09-04T03:53:58;18.50;99.90
3562;DHT22;1795;52.074;4.754;2022-09-04T03:59:43;18.40;99.90
3562;DHT22;1795;52.074;4.754;2022-09-04T04:02:20;18.40;99.90
3562;DHT22;1795;52.074;4.754;2022-09-04T04:08:01;18.40;99.90
3562;DHT22;1795;52.074;4.754;2022-09-04T04:10:40;18.40;99.90
3562;DHT22;1795;52.074;4.754;2022-09-04T04:13:25;18.30;99.90
3562;DHT22;1795;52.074;4.754;2022-09-04T04:16:12;18.40;99.90
3562;DHT22;1795;52.074;4.754;2022-09-04T04:19:06;18.30;99.90
3562;DHT22;1795;52.074;4.754;2022-09-04T04:21:42;18.30;99.90
3562;DHT22;1795;52.074;4.754;2022-09-04T04:24:33;18.30;99.90
3562;DHT22;1795;52.074;4.754;2022-09-04T04:27:18;18.20;99.90
3562;DHT22;1795;52.074;4.754;2022-09-04T04:30:03;18.20;99.90
3562;DHT22;1795;52.074;4.754;2022-09-04T04:32:49;18.20;99.90
3562;DHT22;1795;52.074;4.754;2022-09-04T04:35:28;18.30;99.90
3562;DHT22;1795;52.074;4.754;2022-09-04T04:38:07;18.20;99.90
3562;DHT22;1795;52.074;4.754;2022-09-04T04:43:40;18.20;99.90
3562;DHT22;1795;52.074;4.754;2022-09-04T04:46:15;18.10;99.90
3562;DHT22;1795;52.074;4.754;2022-09-04T04:49:08;18.10;99.90
3562;DHT22;1795;52.074;4.754;2022-09-04T04:51:54;18.10;99.90
3562;DHT22;1795;52.074;4.754;2022-09-04T04:54:33;18.00;99.90
3562;DHT22;1795;52.074;4.754;2022-09-04T04:57:19;18.00;99.90
3562;DHT22;1795;52.074;4.754;2022-09-04T05:00:00;18.00;99.90
3562;DHT22;1795;52.074;4.754;2022-09-04T05:02:36;18.00;99.90
3562;DHT22;1795;52.074;4.754;2022-09-04T05:05:12;18.00;99.90
3562;DHT22;1795;52.074;4.754;2022-09-04T05:07:47;17.90;99.90
3562;DHT22;1795;52.074;4.754;2022-09-04T05:10:19;17.90;99.90
3562;DHT22;1795;52.074;4.754;2022-09-04T05:12:56;17.90;99.90
3562;DHT22;1795;52.074;4.754;2022-09-04T05:15:33;18.00;99.90
3562;DHT22;1795;52.074;4.754;2022-09-04T05:18:29;17.90;99.90
3562;DHT22;1795;52.074;4.754;2022-09-04T05:21:06;17.90;99.90
3562;DHT22;1795;52.074;4.754;2022-09-04T05:23:40;17.90;99.90
3562;DHT22;1795;52.074;4.754;2022-09-04T05:26:18;17.90;99.90
3562;DHT22;1795;52.074;4.754;2022-09-04T05:28:59;17.90;99.90
3562;DHT22;1795;52.074;4.754;2022-09-04T05:31:36;17.90;99.90
3562;DHT22;1795;52.074;4.754;2022-09-04T05:34:10;17.80;99.90
3562;DHT22;1795;52.074;4.754;2022-09-04T05:36:46;17.80;99.90
3562;DHT22;1795;52.074;4.754;2022-09-04T05:39:25;17.90;99.90
3562;DHT22;1795;52.074;4.754;2022-09-04T05:42:20;17.80;99.90
3562;DHT22;1795;52.074;4.754;2022-09-04T05:44:56;17.90;99.90
3562;DHT22;1795;52.074;4.754;2022-09-04T05:47:34;17.90;99.90
3562;DHT22;1795;52.074;4.754;2022-09-04T05:50:16;17.70;99.90
3562;DHT22;1795;52.074;4.754;2022-09-04T05:56:05;17.70;99.90
3562;DHT22;1795;52.074;4.754;2022-09-04T05:58:51;17.80;99.90
3562;DHT22;1795;52.074;4.754;2022-09-04T06:01:47;17.70;99.90
3562;DHT22;1795;52.074;4.754;2022-09-04T06:04:48;17.70;99.90
3562;DHT22;1795;52.074;4.754;2022-09-04T06:07:28;17.80;99.90
3562;DHT22;1795;52.074;4.754;2022-09-04T06:09:59;17.80;99.90
3562;DHT22;1795;52.074;4.754;2022-09-04T06:12:47;17.70;99.90
3562;DHT22;1795;52.074;4.754;2022-09-04T06:15:35;17.80;99.90
3562;DHT22;1795;52.074;4.754;2022-09-04T06:18:27;17.70;99.90
3562;DHT22;1795;52.074;4.754;2022-09-04T06:21:10;17.80;99.90
3562;DHT22;1795;52.074;4.754;2022-09-04T06:23:54;17.70;99.90
3562;DHT22;1795;52.074;4.754;2022-09-04T06:26:36;17.80;99.90
3562;DHT22;1795;52.074;4.754;2022-09-04T06:29:18;17.80;99.90
3562;DHT22;1795;52.074;4.754;2022-09-04T06:32:00;17.80;99.90
3562;DHT22;1795;52.074;4.754;2022-09-04T06:34:47;17.80;99.90
3562;DHT22;1795;52.074;4.754;2022-09-04T06:37:26;17.80;99.90
3562;DHT22;1795;52.074;4.754;2022-09-04T06:40:10;18.00;99.90
3562;DHT22;1795;52.074;4.754;2022-09-04T06:42:50;17.80;99.90
3562;DHT22;1795;52.074;4.754;2022-09-04T06:45:29;17.80;99.90
3562;DHT22;1795;52.074;4.754;2022-09-04T06:48:14;18.00;99.90
3562;DHT22;1795;52.074;4.754;2022-09-04T06:50:52;17.90;99.90
3562;DHT22;1795;52.074;4.754;2022-09-04T06:53:36;17.90;99.90
3562;DHT22;1795;52.074;4.754;2022-09-04T06:56:14;18.00;99.90
3562;DHT22;1795;52.074;4.754;2022-09-04T06:59:08;18.00;99.90
3562;DHT22;1795;52.074;4.754;2022-09-04T07:01:46;18.00;99.90
3562;DHT22;1795;52.074;4.754;2022-09-04T07:04:26;18.10;99.90
3562;DHT22;1795;52.074;4.754;2022-09-04T07:07:06;18.10;99.90
3562;DHT22;1795;52.074;4.754;2022-09-04T07:09:40;18.20;99.90
3562;DHT22;1795;52.074;4.754;2022-09-04T07:12:29;18.20;99.90
3562;DHT22;1795;52.074;4.754;2022-09-04T07:15:35;18.20;99.90
3562;DHT22;1795;52.074;4.754;2022-09-04T07:18:14;18.30;99.90
3562;DHT22;1795;52.074;4.754;2022-09-04T07:20:55;18.30;99.90
3562;DHT22;1795;52.074;4.754;2022-09-04T07:23:33;18.40;99.90
3562;DHT22;1795;52.074;4.754;2022-09-04T07:26:13;18.40;99.90
3562;DHT22;1795;52.074;4.754;2022-09-04T07:29:04;18.60;99.90
3562;DHT22;1795;52.074;4.754;2022-09-04T07:31:38;18.60;99.90
3562;DHT22;1795;52.074;4.754;2022-09-04T07:34:12;18.70;99.90
3562;DHT22;1795;52.074;4.754;2022-09-04T07:36:45;18.80;99.90
3562;DHT22;1795;52.074;4.754;2022-09-04T07:39:21;18.70;99.90
3562;DHT22;1795;52.074;4.754;2022-09-04T07:41:55;18.80;99.90
3562;DHT22;1795;52.074;4.754;2022-09-04T07:44:34;18.90;99.90
3562;DHT22;1795;52.074;4.754;2022-09-04T07:47:10;19.00;99.90
3562;DHT22;1795;52.074;4.754;2022-09-04T07:49:48;19.00;99.90
3562;DHT22;1795;52.074;4.754;2022-09-04T07:52:28;19.10;99.90
3562;DHT22;1795;52.074;4.754;2022-09-04T08:01:03;19.30;99.90
3562;DHT22;1795;52.074;4.754;2022-09-04T08:03:48;19.40;99.90
3562;DHT22;1795;52.074;4.754;2022-09-04T08:06:25;19.40;99.90
3562;DHT22;1795;52.074;4.754;2022-09-04T08:09:13;19.80;99.90
3562;DHT22;1795;52.074;4.754;2022-09-04T08:14:52;19.90;99.90
3562;DHT22;1795;52.074;4.754;2022-09-04T08:17:48;20.10;99.90
3562;DHT22;1795;52.074;4.754;2022-09-04T08:20:31;20.30;99.90
3562;DHT22;1795;52.074;4.754;2022-09-04T08:23:17;20.20;99.90
3562;DHT22;1795;52.074;4.754;2022-09-04T08:25:54;20.30;99.90
3562;DHT22;1795;52.074;4.754;2022-09-04T08:28:34;20.40;99.90
3562;DHT22;1795;52.074;4.754;2022-09-04T08:31:15;20.50;99.90
3562;DHT22;1795;52.074;4.754;2022-09-04T08:34:00;20.60;99.90
3562;DHT22;1795;52.074;4.754;2022-09-04T08:36:39;20.60;99.90
3562;DHT22;1795;52.074;4.754;2022-09-04T08:39:16;20.70;99.90
3562;DHT22;1795;52.074;4.754;2022-09-04T08:48:21;21.00;99.90
3562;DHT22;1795;52.074;4.754;2022-09-04T08:51:30;21.10;99.90
3562;DHT22;1795;52.074;4.754;2022-09-04T08:54:30;21.30;99.90
3562;DHT22;1795;52.074;4.754;2022-09-04T08:57:32;21.40;99.90
3562;DHT22;1795;52.074;4.754;2022-09-04T09:00:07;21.60;99.90
3562;DHT22;1795;52.074;4.754;2022-09-04T09:09:41;22.00;99.90
3562;DHT22;1795;52.074;4.754;2022-09-04T09:18:32;22.30;99.90
3562;DHT22;1795;52.074;4.754;2022-09-04T09:21:07;22.40;99.90
3562;DHT22;1795;52.074;4.754;2022-09-04T09:23:50;22.50;99.90
3562;DHT22;1795;52.074;4.754;2022-09-04T09:26:25;22.60;99.90
3562;DHT22;1795;52.074;4.754;2022-09-04T09:29:24;22.70;99.90
3562;DHT22;1795;52.074;4.754;2022-09-04T09:32:27;22.80;99.90
3562;DHT22;1795;52.074;4.754;2022-09-04T09:38:40;22.90;99.90
3562;DHT22;1795;52.074;4.754;2022-09-04T09:41:46;23.00;99.90
3562;DHT22;1795;52.074;4.754;2022-09-04T09:44:42;23.20;99.90
3562;DHT22;1795;52.074;4.754;2022-09-04T09:54:01;23.50;99.90
3562;DHT22;1795;52.074;4.754;2022-09-04T09:56:45;23.50;99.90
3562;DHT22;1795;52.074;4.754;2022-09-04T09:59:49;23.60;99.90
3562;DHT22;1795;52.074;4.754;2022-09-04T10:03:05;23.70;99.90
3562;DHT22;1795;52.074;4.754;2022-09-04T10:06:15;23.80;99.90
3562;DHT22;1795;52.074;4.754;2022-09-04T10:09:28;23.90;99.90
3562;DHT22;1795;52.074;4.754;2022-09-04T10:18:42;24.30;99.90
3562;DHT22;1795;52.074;4.754;2022-09-04T10:21:49;24.30;99.90
3562;DHT22;1795;52.074;4.754;2022-09-04T10:25:06;24.40;99.90
3562;DHT22;1795;52.074;4.754;2022-09-04T10:31:02;24.70;99.90
3562;DHT22;1795;52.074;4.754;2022-09-04T10:33:47;24.80;99.90
3562;DHT22;1795;52.074;4.754;2022-09-04T10:36:28;24.80;99.90
3562;DHT22;1795;52.074;4.754;2022-09-04T10:39:09;24.90;99.90
3562;DHT22;1795;52.074;4.754;2022-09-04T10:42:07;25.10;99.90
3562;DHT22;1795;52.074;4.754;2022-09-04T10:44:52;25.10;99.90
3562;DHT22;1795;52.074;4.754;2022-09-04T10:47:39;25.20;99.90
3562;DHT22;1795;52.074;4.754;2022-09-04T10:50:34;25.30;99.90
3562;DHT22;1795;52.074;4.754;2022-09-04T10:53:31;25.40;99.90
3562;DHT22;1795;52.074;4.754;2022-09-04T10:56:09;25.50;99.90
3562;DHT22;1795;52.074;4.754;2022-09-04T10:59:02;25.60;99.90
3562;DHT22;1795;52.074;4.754;2022-09-04T11:01:59;25.70;99.90
3562;DHT22;1795;52.074;4.754;2022-09-04T11:08:02;25.90;99.90
3562;DHT22;1795;52.074;4.754;2022-09-04T11:10:52;26.00;99.90
3562;DHT22;1795;52.074;4.754;2022-09-04T11:17:07;26.20;99.90
3562;DHT22;1795;52.074;4.754;2022-09-04T11:20:24;26.30;99.90
3562;DHT22;1795;52.074;4.754;2022-09-04T11:23:24;26.40;99.90
3562;DHT22;1795;52.074;4.754;2022-09-04T11:29:32;26.50;99.90
3562;DHT22;1795;52.074;4.754;2022-09-04T11:32:20;26.60;99.90
3562;DHT22;1795;52.074;4.754;2022-09-04T11:35:19;26.70;99.90
3562;DHT22;1795;52.074;4.754;2022-09-04T11:38:22;26.80;99.90
3562;DHT22;1795;52.074;4.754;2022-09-04T11:41:25;26.80;99.90
3562;DHT22;1795;52.074;4.754;2022-09-04T11:44:14;26.90;99.90
3562;DHT22;1795;52.074;4.754;2022-09-04T11:46:56;27.00;99.90
3562;DHT22;1795;52.074;4.754;2022-09-04T11:52:49;27.20;99.90
3562;DHT22;1795;52.074;4.754;2022-09-04T11:55:26;27.30;99.90
3562;DHT22;1795;52.074;4.754;2022-09-04T12:01:01;27.50;99.90
3562;DHT22;1795;52.074;4.754;2022-09-04T12:06:47;27.50;99.90
3562;DHT22;1795;52.074;4.754;2022-09-04T12:09:43;27.50;99.90
3562;DHT22;1795;52.074;4.754;2022-09-04T12:12:27;27.60;99.90
3562;DHT22;1795;52.074;4.754;2022-09-04T12:15:18;27.60;99.90
3562;DHT22;1795;52.074;4.754;2022-09-04T12:18:13;27.70;99.90
3562;DHT22;1795;52.074;4.754;2022-09-04T12:21:00;27.80;99.90
3562;DHT22;1795;52.074;4.754;2022-09-04T12:24:03;27.90;99.90
3562;DHT22;1795;52.074;4.754;2022-09-04T12:26:56;27.90;99.90
3562;DHT22;1795;52.074;4.754;2022-09-04T12:29:54;28.00;99.90
3562;DHT22;1795;52.074;4.754;2022-09-04T12:36:18;28.00;99.90
3562;DHT22;1795;52.074;4.754;2022-09-04T12:39:17;28.10;99.90
3562;DHT22;1795;52.074;4.754;2022-09-04T12:41:54;28.20;99.90
3562;DHT22;1795;52.074;4.754;2022-09-04T12:44:34;28.20;99.90
3562;DHT22;1795;52.074;4.754;2022-09-04T12:47:16;28.20;99.90
3562;DHT22;1795;52.074;4.754;2022-09-04T12:49:59;28.30;99.90
3562;DHT22;1795;52.074;4.754;2022-09-04T12:52:45;28.30;99.90
3562;DHT22;1795;52.074;4.754;2022-09-04T12:55:22;28.40;99.90
3562;DHT22;1795;52.074;4.754;2022-09-04T12:58:09;28.40;99.90
3562;DHT22;1795;52.074;4.754;2022-09-04T13:00:48;28.50;99.90
3562;DHT22;1795;52.074;4.754;2022-09-04T13:03:28;28.50;99.90
3562;DHT22;1795;52.074;4.754;2022-09-04T13:06:19;28.60;99.90
3562;DHT22;1795;52.074;4.754;2022-09-04T13:09:00;28.60;99.90
3562;DHT22;1795;52.074;4.754;2022-09-04T13:11:42;28.70;99.90
3562;DHT22;1795;52.074;4.754;2022-09-04T13:14:40;28.70;99.90
3562;DHT22;1795;52.074;4.754;2022-09-04T13:17:17;28.80;99.90
3562;DHT22;1795;52.074;4.754;2022-09-04T13:19:51;28.80;99.90
3562;DHT22;1795;52.074;4.754;2022-09-04T13:22:29;28.80;99.90
3562;DHT22;1795;52.074;4.754;2022-09-04T13:25:07;28.80;99.90
3562;DHT22;1795;52.074;4.754;2022-09-04T13:27:46;28.80;99.90
3562;DHT22;1795;52.074;4.754;2022-09-04T13:30:21;28.80;99.90
3562;DHT22;1795;52.074;4.754;2022-09-04T13:33:27;28.80;99.50
3562;DHT22;1795;52.074;4.754;2022-09-04T13:36:14;28.90;98.50
3562;DHT22;1795;52.074;4.754;2022-09-04T13:39:14;28.90;97.30
3562;DHT22;1795;52.074;4.754;2022-09-04T13:42:00;29.00;98.80
3562;DHT22;1795;52.074;4.754;2022-09-04T13:44:52;29.00;97.10
3562;DHT22;1795;52.074;4.754;2022-09-04T13:47:22;29.00;98.00
3562;DHT22;1795;52.074;4.754;2022-09-04T13:50:03;29.00;97.70
3562;DHT22;1795;52.074;4.754;2022-09-04T13:52:39;29.00;97.60
3562;DHT22;1795;52.074;4.754;2022-09-04T13:55:13;29.10;97.90
3562;DHT22;1795;52.074;4.754;2022-09-04T13:57:47;29.10;97.60
3562;DHT22;1795;52.074;4.754;2022-09-04T14:00:25;29.20;97.30
3562;DHT22;1795;52.074;4.754;2022-09-04T14:02:59;29.20;97.80
3562;DHT22;1795;52.074;4.754;2022-09-04T14:05:31;29.30;97.90
3562;DHT22;1795;52.074;4.754;2022-09-04T14:08:03;29.30;97.50
3562;DHT22;1795;52.074;4.754;2022-09-04T14:10:49;29.40;97.80
3562;DHT22;1795;52.074;4.754;2022-09-04T14:13:27;29.50;97.50
3562;DHT22;1795;52.074;4.754;2022-09-04T14:16:05;29.50;96.60
3562;DHT22;1795;52.074;4.754;2022-09-04T14:21:56;29.60;96.60
3562;DHT22;1795;52.074;4.754;2022-09-04T14:24:34;29.70;96.70
3562;DHT22;1795;52.074;4.754;2022-09-04T14:27:09;29.70;96.60
3562;DHT22;1795;52.074;4.754;2022-09-04T14:29:52;29.80;96.40
3562;DHT22;1795;52.074;4.754;2022-09-04T14:32:32;29.80;96.50
3562;DHT22;1795;52.074;4.754;2022-09-04T14:35:32;29.80;96.70
3562;DHT22;1795;52.074;4.754;2022-09-04T14:38:23;29.90;96.70
3562;DHT22;1795;52.074;4.754;2022-09-04T14:41:01;29.90;96.80
3562;DHT22;1795;52.074;4.754;2022-09-04T14:43:41;30.00;96.40
3562;DHT22;1795;52.074;4.754;2022-09-04T14:46:20;30.00;95.70
3562;DHT22;1795;52.074;4.754;2022-09-04T14:49:01;30.00;95.80
3562;DHT22;1795;52.074;4.754;2022-09-04T14:51:34;30.10;95.80
3562;DHT22;1795;52.074;4.754;2022-09-04T14:54:03;30.10;95.00
3562;DHT22;1795;52.074;4.754;2022-09-04T14:56:36;30.00;94.50
3562;DHT22;1795;52.074;4.754;2022-09-04T14:59:16;30.00;93.70
3562;DHT22;1795;52.074;4.754;2022-09-04T15:02:01;30.00;94.10
3562;DHT22;1795;52.074;4.754;2022-09-04T15:04:37;30.10;93.30
3562;DHT22;1795;52.074;4.754;2022-09-04T15:07:20;30.10;93.60
3562;DHT22;1795;52.074;4.754;2022-09-04T15:09:51;30.20;94.10
3562;DHT22;1795;52.074;4.754;2022-09-04T15:12:22;30.10;93.30
3562;DHT22;1795;52.074;4.754;2022-09-04T15:14:56;30.10;92.90
3562;DHT22;1795;52.074;4.754;2022-09-04T15:17:30;30.10;92.50
3562;DHT22;1795;52.074;4.754;2022-09-04T15:20:03;30.00;93.20
3562;DHT22;1795;52.074;4.754;2022-09-04T15:22:38;30.10;93.40
3562;DHT22;1795;52.074;4.754;2022-09-04T15:25:37;30.10;93.50
3562;DHT22;1795;52.074;4.754;2022-09-04T15:28:29;30.10;92.50
3562;DHT22;1795;52.074;4.754;2022-09-04T15:31:09;30.00;91.90
3562;DHT22;1795;52.074;4.754;2022-09-04T15:33:44;30.10;92.30
3562;DHT22;1795;52.074;4.754;2022-09-04T15:36:16;30.00;92.40
3562;DHT22;1795;52.074;4.754;2022-09-04T15:38:48;30.10;92.30
3562;DHT22;1795;52.074;4.754;2022-09-04T15:41:23;30.10;92.60
3562;DHT22;1795;52.074;4.754;2022-09-04T15:43:57;30.10;92.20
3562;DHT22;1795;52.074;4.754;2022-09-04T15:46:39;30.00;92.10
3562;DHT22;1795;52.074;4.754;2022-09-04T15:49:21;30.00;92.00
3562;DHT22;1795;52.074;4.754;2022-09-04T15:51:55;30.00;92.60
3562;DHT22;1795;52.074;4.754;2022-09-04T15:54:31;30.00;92.20
3562;DHT22;1795;52.074;4.754;2022-09-04T15:57:07;29.90;92.20
3562;DHT22;1795;52.074;4.754;2022-09-04T15:59:45;29.90;92.20
3562;DHT22;1795;52.074;4.754;2022-09-04T16:02:23;29.80;91.70
3562;DHT22;1795;52.074;4.754;2022-09-04T16:05:09;29.80;92.40
3562;DHT22;1795;52.074;4.754;2022-09-04T16:07:54;29.70;91.80
3562;DHT22;1795;52.074;4.754;2022-09-04T16:10:42;29.60;92.20
3562;DHT22;1795;52.074;4.754;2022-09-04T16:13:40;29.60;91.50
3562;DHT22;1795;52.074;4.754;2022-09-04T16:16:13;29.50;91.80
3562;DHT22;1795;52.074;4.754;2022-09-04T16:19:02;29.40;92.30
3562;DHT22;1795;52.074;4.754;2022-09-04T16:21:43;29.40;91.60
3562;DHT22;1795;52.074;4.754;2022-09-04T16:24:17;29.30;93.00
3562;DHT22;1795;52.074;4.754;2022-09-04T16:26:50;29.30;93.20
3562;DHT22;1795;52.074;4.754;2022-09-04T16:29:30;29.20;93.10
3562;DHT22;1795;52.074;4.754;2022-09-04T16:32:03;29.10;92.90
3562;DHT22;1795;52.074;4.754;2022-09-04T16:34:42;29.10;93.20
3562;DHT22;1795;52.074;4.754;2022-09-04T16:37:14;29.00;93.20
3562;DHT22;1795;52.074;4.754;2022-09-04T16:39:54;29.00;93.00
3562;DHT22;1795;52.074;4.754;2022-09-04T16:42:25;29.00;92.80
3562;DHT22;1795;52.074;4.754;2022-09-04T16:45:00;28.90;91.80
3562;DHT22;1795;52.074;4.754;2022-09-04T16:47:35;28.80;92.00
3562;DHT22;1795;52.074;4.754;2022-09-04T16:50:11;28.80;90.80
3562;DHT22;1795;52.074;4.754;2022-09-04T16:53:01;28.80;90.80
3562;DHT22;1795;52.074;4.754;2022-09-04T16:55:46;28.80;90.00
3562;DHT22;1795;52.074;4.754;2022-09-04T16:58:20;28.70;86.00
3562;DHT22;1795;52.074;4.754;2022-09-04T17:01:06;28.60;85.40
3562;DHT22;1795;52.074;4.754;2022-09-04T17:03:46;28.60;86.80
3562;DHT22;1795;52.074;4.754;2022-09-04T17:06:24;28.50;87.10
3562;DHT22;1795;52.074;4.754;2022-09-04T17:09:02;28.40;86.90
3562;DHT22;1795;52.074;4.754;2022-09-04T17:11:38;28.30;84.10
3562;DHT22;1795;52.074;4.754;2022-09-04T17:14:13;28.30;84.90
3562;DHT22;1795;52.074;4.754;2022-09-04T17:16:50;28.10;85.10
3562;DHT22;1795;52.074;4.754;2022-09-04T17:19:20;28.00;85.20
3562;DHT22;1795;52.074;4.754;2022-09-04T17:22:14;28.00;86.50
3562;DHT22;1795;52.074;4.754;2022-09-04T17:25:25;27.90;87.30
3562;DHT22;1795;52.074;4.754;2022-09-04T17:28:46;27.80;88.00
3562;DHT22;1795;52.074;4.754;2022-09-04T17:31:40;27.60;89.00
3562;DHT22;1795;52.074;4.754;2022-09-04T17:34:16;27.50;88.90
3562;DHT22;1795;52.074;4.754;2022-09-04T17:37:10;27.50;90.00
3562;DHT22;1795;52.074;4.754;2022-09-04T17:40:04;27.30;88.50
3562;DHT22;1795;52.074;4.754;2022-09-04T17:43:05;27.30;89.60
3562;DHT22;1795;52.074;4.754;2022-09-04T17:45:57;27.20;90.10
3562;DHT22;1795;52.074;4.754;2022-09-04T17:48:30;27.10;89.60
3562;DHT22;1795;52.074;4.754;2022-09-04T17:51:01;27.00;90.50
3562;DHT22;1795;52.074;4.754;2022-09-04T17:53:31;26.90;90.50
3562;DHT22;1795;52.074;4.754;2022-09-04T17:56:05;26.80;90.50
3562;DHT22;1795;52.074;4.754;2022-09-04T17:58:39;26.70;90.60
3562;DHT22;1795;52.074;4.754;2022-09-04T18:01:15;26.60;90.80
3562;DHT22;1795;52.074;4.754;2022-09-04T18:03:58;26.50;91.50
3562;DHT22;1795;52.074;4.754;2022-09-04T18:06:52;26.40;91.30
3562;DHT22;1795;52.074;4.754;2022-09-04T18:09:25;26.30;91.40
3562;DHT22;1795;52.074;4.754;2022-09-04T18:12:02;26.20;92.20
3562;DHT22;1795;52.074;4.754;2022-09-04T18:14:40;26.10;92.70
3562;DHT22;1795;52.074;4.754;2022-09-04T18:17:19;26.00;93.30
3562;DHT22;1795;52.074;4.754;2022-09-04T18:19:51;25.90;93.50
3562;DHT22;1795;52.074;4.754;2022-09-04T18:22:26;25.80;93.40
3562;DHT22;1795;52.074;4.754;2022-09-04T18:25:01;25.60;94.20
3562;DHT22;1795;52.074;4.754;2022-09-04T18:27:51;25.60;94.40
3562;DHT22;1795;52.074;4.754;2022-09-04T18:30:58;25.50;94.50
3562;DHT22;1795;52.074;4.754;2022-09-04T18:33:57;25.40;94.90
3562;DHT22;1795;52.074;4.754;2022-09-04T18:36:56;25.20;95.50
3562;DHT22;1795;52.074;4.754;2022-09-04T18:39:48;25.10;94.90
3562;DHT22;1795;52.074;4.754;2022-09-04T18:42:30;25.10;95.20
3562;DHT22;1795;52.074;4.754;2022-09-04T18:45:25;25.00;95.70
3562;DHT22;1795;52.074;4.754;2022-09-04T18:48:17;24.90;95.80
3562;DHT22;1795;52.074;4.754;2022-09-04T18:51:15;24.80;96.30
3562;DHT22;1795;52.074;4.754;2022-09-04T18:53:51;24.70;96.30
3562;DHT22;1795;52.074;4.754;2022-09-04T18:56:23;24.60;96.80
3562;DHT22;1795;52.074;4.754;2022-09-04T18:58:58;24.60;97.40
3562;DHT22;1795;52.074;4.754;2022-09-04T19:01:35;24.50;97.90
3562;DHT22;1795;52.074;4.754;2022-09-04T19:04:30;24.40;98.40
3562;DHT22;1795;52.074;4.754;2022-09-04T19:07:03;24.30;99.10
3562;DHT22;1795;52.074;4.754;2022-09-04T19:09:50;24.30;99.40
3562;DHT22;1795;52.074;4.754;2022-09-04T19:12:22;24.40;99.60
3562;DHT22;1795;52.074;4.754;2022-09-04T19:15:28;24.30;99.50